sensor_id;sensor_type;location;lat;lon;timestamp;temperature;humidity
20370;DHT22;10344;47.592;9.600;2023-07-16T00:00:55;23.80;99.90
20370;DHT22;10344;47.592;9.600;2023-07-16T00:03:20;23.70;99.90
20370;DHT22;10344;47.592;9.600;2023-07-16T00:05:48;23.40;99.90
20370;DHT22;10344;47.592;9.600;2023-07-16T00:08:16;23.20;99.90
20370;DHT22;10344;47.592;9.600;2023-07-16T00:10:42;22.90;99.90
20370;DHT22;10344;47.592;9.600;2023-07-16T00:13:07;22.80;99.90
20370;DHT22;10344;47.592;9.600;2023-07-16T00:15:35;22.50;99.90
20370;DHT22;10344;47.592;9.600;2023-07-16T00:18:01;22.30;99.90
20370;DHT22;10344;47.592;9.600;2023-07-16T00:20:26;22.10;99.90
20370;DHT22;10344;47.592;9.600;2023-07-16T00:22:54;21.90;99.90
20370;DHT22;10344;47.592;9.600;2023-07-16T00:25:19;21.90;99.90
20370;DHT22;10344;47.592;9.600;2023-07-16T00:27:47;21.70;99.90
20370;DHT22;10344;47.592;9.600;2023-07-16T00:30:13;21.70;99.90
20370;DHT22;10344;47.592;9.600;2023-07-16T00:32:38;21.60;99.90
20370;DHT22;10344;47.592;9.600;2023-07-16T00:35:04;21.70;99.90
20370;DHT22;10344;47.592;9.600;2023-07-16T00:37:31;21.70;99.90
20370;DHT22;10344;47.592;9.600;2023-07-16T00:39:56;21.70;99.90
20370;DHT22;10344;47.592;9.600;2023-07-16T00:42:22;21.70;99.90
20370;DHT22;10344;47.592;9.600;2023-07-16T00:44:47;21.60;99.90
20370;DHT22;10344;47.592;9.600;2023-07-16T00:47:13;21.40;99.90
20370;DHT22;10344;47.592;9.600;2023-07-16T00:49:38;21.40;99.90
20370;DHT22;10344;47.592;9.600;2023-07-16T00:52:04;21.40;99.90
20370;DHT22;10344;47.592;9.600;2023-07-16T00:54:32;21.40;99.90
20370;DHT22;10344;47.592;9.600;2023-07-16T00:56:58;21.30;99.90
20370;DHT22;10344;47.592;9.600;2023-07-16T00:59:23;21.30;99.90
20370;DHT22;10344;47.592;9.600;2023-07-16T01:01:49;21.20;99.90
20370;DHT22;10344;47.592;9.600;2023-07-16T01:04:15;21.10;99.90
20370;DHT22;10344;47.592;9.600;2023-07-16T01:06:41;21.10;99.90
20370;DHT22;10344;47.592;9.600;2023-07-16T01:11:33;21.10;99.90
20370;DHT22;10344;47.592;9.600;2023-07-16T01:14:00;21.20;99.90
20370;DHT22;10344;47.592;9.600;2023-07-16T01:16:26;21.10;99.90
20370;DHT22;10344;47.592;9.600;2023-07-16T01:18:52;21.10;99.90
20370;DHT22;10344;47.592;9.600;2023-07-16T01:21:18;21.00;99.90
20370;DHT22;10344;47.592;9.600;2023-07-16T01:31:32;20.70;99.90
20370;DHT22;10344;47.592;9.600;2023-07-16T01:33:58;20.50;99.90
20370;DHT22;10344;47.592;9.600;2023-07-16T01:36:24;20.40;99.90
20370;DHT22;10344;47.592;9.600;2023-07-16T01:38:53;20.30;99.90
20370;DHT22;10344;47.592;9.600;2023-07-16T01:41:19;20.10;99.90
20370;DHT22;10344;47.592;9.600;2023-07-16T01:43:44;19.90;99.90
20370;DHT22;10344;47.592;9.600;2023-07-16T01:46:12;19.70;99.90
20370;DHT22;10344;47.592;9.600;2023-07-16T01:48:38;19.50;99.90
20370;DHT22;10344;47.592;9.600;2023-07-16T01:51:04;19.40;99.90
20370;DHT22;10344;47.592;9.600;2023-07-16T01:53:30;19.20;99.90
20370;DHT22;10344;47.592;9.600;2023-07-16T01:55:56;19.10;99.90
20370;DHT22;10344;47.592;9.600;2023-07-16T01:58:22;19.00;99.90
20370;DHT22;10344;47.592;9.600;2023-07-16T02:00:49;19.00;99.90
20370;DHT22;10344;47.592;9.600;2023-07-16T02:03:18;19.00;99.90
20370;DHT22;10344;47.592;9.600;2023-07-16T02:05:43;18.90;99.90
20370;DHT22;10344;47.592;9.600;2023-07-16T02:08:11;18.90;99.90
20370;DHT22;10344;47.592;9.600;2023-07-16T02:10:36;18.90;99.90
20370;DHT22;10344;47.592;9.600;2023-07-16T02:13:02;18.90;99.90
20370;DHT22;10344;47.592;9.600;2023-07-16T02:15:28;18.80;99.90
20370;DHT22;10344;47.592;9.600;2023-07-16T02:17:53;18.80;99.90
20370;DHT22;10344;47.592;9.600;2023-07-16T02:20:19;18.70;99.90
20370;DHT22;10344;47.592;9.600;2023-07-16T02:22:44;18.70;99.90
20370;DHT22;10344;47.592;9.600;2023-07-16T02:25:12;18.70;99.90
20370;DHT22;10344;47.592;9.600;2023-07-16T02:27:37;18.80;99.90
20370;DHT22;10344;47.592;9.600;2023-07-16T02:30:03;18.70;99.90
20370;DHT22;10344;47.592;9.600;2023-07-16T02:32:29;18.80;99.90
20370;DHT22;10344;47.592;9.600;2023-07-16T02:34:54;18.90;99.90
20370;DHT22;10344;47.592;9.600;2023-07-16T02:37:20;18.90;99.90
20370;DHT22;10344;47.592;9.600;2023-07-16T02:39:45;19.00;99.90
20370;DHT22;10344;47.592;9.600;2023-07-16T02:42:12;19.00;99.90
20370;DHT22;10344;47.592;9.600;2023-07-16T02:44:38;19.00;99.90
20370;DHT22;10344;47.592;9.600;2023-07-16T02:47:07;19.00;99.90
20370;DHT22;10344;47.592;9.600;2023-07-16T02:49:33;19.00;99.90
20370;DHT22;10344;47.592;9.600;2023-07-16T02:51:58;19.00;99.90
20370;DHT22;10344;47.592;9.600;2023-07-16T02:54:24;19.00;99.90
20370;DHT22;10344;47.592;9.600;2023-07-16T02:56:49;18.90;99.90
20370;DHT22;10344;47.592;9.600;2023-07-16T02:59:17;18.90;99.90
20370;DHT22;10344;47.592;9.600;2023-07-16T03:01:42;18.90;99.90
20370;DHT22;10344;47.592;9.600;2023-07-16T03:04:08;18.80;99.90
20370;DHT22;10344;47.592;9.600;2023-07-16T03:06:33;18.80;99.90
20370;DHT22;10344;47.592;9.600;2023-07-16T03:08:59;18.90;99.90
20370;DHT22;10344;47.592;9.600;2023-07-16T03:11:24;18.80;99.90
20370;DHT22;10344;47.592;9.600;2023-07-16T03:13:50;18.80;99.90
20370;DHT22;10344;47.592;9.600;2023-07-16T03:16:17;18.90;99.90
20370;DHT22;10344;47.592;9.600;2023-07-16T03:18:44;19.00;99.90
20370;DHT22;10344;47.592;9.600;2023-07-16T03:21:09;19.00;99.90
20370;DHT22;10344;47.592;9.600;2023-07-16T03:23:35;19.00;99.90
20370;DHT22;10344;47.592;9.600;2023-07-16T03:26:00;19.10;99.90
20370;DHT22;10344;47.592;9.600;2023-07-16T03:28:25;19.10;99.90
20370;DHT22;10344;47.592;9.600;2023-07-16T03:30:53;19.10;99.90
20370;DHT22;10344;47.592;9.600;2023-07-16T03:33:19;19.00;99.90
20370;DHT22;10344;47.592;9.600;2023-07-16T03:35:45;19.00;99.90
20370;DHT22;10344;47.592;9.600;2023-07-16T03:38:11;18.90;99.90
20370;DHT22;10344;47.592;9.600;2023-07-16T03:40:36;18.80;99.90
20370;DHT22;10344;47.592;9.600;2023-07-16T03:43:04;18.70;99.90
20370;DHT22;10344;47.592;9.600;2023-07-16T03:45:35;18.70;99.90
20370;DHT22;10344;47.592;9.600;2023-07-16T03:48:01;18.60;99.90
20370;DHT22;10344;47.592;9.600;2023-07-16T03:50:26;18.50;99.90
20370;DHT22;10344;47.592;9.600;2023-07-16T03:52:52;18.40;99.90
20370;DHT22;10344;47.592;9.600;2023-07-16T03:55:18;18.40;99.90
20370;DHT22;10344;47.592;9.600;2023-07-16T03:57:47;18.40;99.90
20370;DHT22;10344;47.592;9.600;2023-07-16T04:00:12;18.40;99.90
20370;DHT22;10344;47.592;9.600;2023-07-16T04:02:40;18.50;99.90
20370;DHT22;10344;47.592;9.600;2023-07-16T04:05:06;18.60;99.90
20370;DHT22;10344;47.592;9.600;2023-07-16T04:07:32;18.60;99.90
20370;DHT22;10344;47.592;9.600;2023-07-16T04:09:57;18.60;99.90
20370;DHT22;10344;47.592;9.600;2023-07-16T04:12:25;18.60;99.90
20370;DHT22;10344;47.592;9.600;2023-07-16T04:14:54;18.70;99.90
20370;DHT22;10344;47.592;9.600;2023-07-16T04:17:20;18.70;99.90
20370;DHT22;10344;47.592;9.600;2023-07-16T04:19:45;18.80;99.90
20370;DHT22;10344;47.592;9.600;2023-07-16T04:22:11;18.90;99.90
20370;DHT22;10344;47.592;9.600;2023-07-16T04:24:36;18.80;99.90
20370;DHT22;10344;47.592;9.600;2023-07-16T04:27:02;18.70;99.90
20370;DHT22;10344;47.592;9.600;2023-07-16T04:29:27;18.60;99.90
20370;DHT22;10344;47.592;9.600;2023-07-16T04:31:54;18.50;99.90
20370;DHT22;10344;47.592;9.600;2023-07-16T04:34:22;18.40;99.90
20370;DHT22;10344;47.592;9.600;2023-07-16T04:36:47;18.50;99.90
20370;DHT22;10344;47.592;9.600;2023-07-16T04:39:13;18.40;99.90
20370;DHT22;10344;47.592;9.600;2023-07-16T04:41:41;18.40;99.90
20370;DHT22;10344;47.592;9.600;2023-07-16T04:44:06;18.40;99.90
20370;DHT22;10344;47.592;9.600;2023-07-16T04:46:32;18.30;99.90
20370;DHT22;10344;47.592;9.600;2023-07-16T04:48:57;18.40;99.90
20370;DHT22;10344;47.592;9.600;2023-07-16T04:51:23;18.40;99.90
20370;DHT22;10344;47.592;9.600;2023-07-16T04:53:48;18.30;99.90
20370;DHT22;10344;47.592;9.600;2023-07-16T04:56:15;18.30;99.90
20370;DHT22;10344;47.592;9.600;2023-07-16T04:58:41;18.30;99.90
20370;DHT22;10344;47.592;9.600;2023-07-16T05:01:07;18.30;99.90
20370;DHT22;10344;47.592;9.600;2023-07-16T05:03:35;18.30;99.90
20370;DHT22;10344;47.592;9.600;2023-07-16T05:06:01;18.30;99.90
20370;DHT22;10344;47.592;9.600;2023-07-16T05:08:26;18.30;99.90
20370;DHT22;10344;47.592;9.600;2023-07-16T05:10:52;18.30;99.90
20370;DHT22;10344;47.592;9.600;2023-07-16T05:13:17;18.40;99.90
20370;DHT22;10344;47.592;9.600;2023-07-16T05:15:46;18.40;99.90
20370;DHT22;10344;47.592;9.600;2023-07-16T05:18:11;18.40;99.90
20370;DHT22;10344;47.592;9.600;2023-07-16T05:20:39;18.40;99.90
20370;DHT22;10344;47.592;9.600;2023-07-16T05:23:05;18.50;99.90
20370;DHT22;10344;47.592;9.600;2023-07-16T05:25:30;18.60;99.90
20370;DHT22;10344;47.592;9.600;2023-07-16T05:27:58;18.60;99.90
20370;DHT22;10344;47.592;9.600;2023-07-16T05:30:24;18.60;99.90
20370;DHT22;10344;47.592;9.600;2023-07-16T05:32:49;18.60;99.90
20370;DHT22;10344;47.592;9.600;2023-07-16T05:35:19;18.60;99.90
20370;DHT22;10344;47.592;9.600;2023-07-16T05:37:50;18.60;99.90
20370;DHT22;10344;47.592;9.600;2023-07-16T05:40:18;18.60;99.90
20370;DHT22;10344;47.592;9.600;2023-07-16T05:42:43;18.50;99.90
20370;DHT22;10344;47.592;9.600;2023-07-16T05:45:09;18.50;99.90
20370;DHT22;10344;47.592;9.600;2023-07-16T05:47:37;18.50;99.90
20370;DHT22;10344;47.592;9.600;2023-07-16T05:50:02;18.40;99.90
20370;DHT22;10344;47.592;9.600;2023-07-16T05:52:28;18.40;99.90
20370;DHT22;10344;47.592;9.600;2023-07-16T05:54:54;18.40;99.90
20370;DHT22;10344;47.592;9.600;2023-07-16T05:57:19;18.40;99.90
20370;DHT22;10344;47.592;9.600;2023-07-16T05:59:45;18.40;99.90
20370;DHT22;10344;47.592;9.600;2023-07-16T06:02:13;18.40;99.90
20370;DHT22;10344;47.592;9.600;2023-07-16T06:04:41;18.40;99.90
20370;DHT22;10344;47.592;9.600;2023-07-16T06:07:06;18.40;99.90
20370;DHT22;10344;47.592;9.600;2023-07-16T06:09:32;18.40;99.90
20370;DHT22;10344;47.592;9.600;2023-07-16T06:11:58;18.40;99.90
20370;DHT22;10344;47.592;9.600;2023-07-16T06:14:23;18.50;99.90
20370;DHT22;10344;47.592;9.600;2023-07-16T06:16:51;18.60;99.90
20370;DHT22;10344;47.592;9.600;2023-07-16T06:19:17;18.60;99.90
20370;DHT22;10344;47.592;9.600;2023-07-16T06:21:43;18.70;99.90
20370;DHT22;10344;47.592;9.600;2023-07-16T06:24:08;18.80;99.90
20370;DHT22;10344;47.592;9.600;2023-07-16T06:26:36;18.90;99.90
20370;DHT22;10344;47.592;9.600;2023-07-16T06:29:02;19.00;99.90
20370;DHT22;10344;47.592;9.600;2023-07-16T06:31:29;19.10;99.90
20370;DHT22;10344;47.592;9.600;2023-07-16T06:33:57;19.20;99.90
20370;DHT22;10344;47.592;9.600;2023-07-16T06:36:23;19.30;99.90
20370;DHT22;10344;47.592;9.600;2023-07-16T06:38:48;19.30;99.90
20370;DHT22;10344;47.592;9.600;2023-07-16T06:41:14;19.30;99.90
20370;DHT22;10344;47.592;9.600;2023-07-16T06:43:39;19.20;99.90
20370;DHT22;10344;47.592;9.600;2023-07-16T06:46:05;19.20;99.90
20370;DHT22;10344;47.592;9.600;2023-07-16T06:48:30;19.20;99.90
20370;DHT22;10344;47.592;9.600;2023-07-16T06:50:56;19.20;99.90
20370;DHT22;10344;47.592;9.600;2023-07-16T06:53:21;19.20;99.90
20370;DHT22;10344;47.592;9.600;2023-07-16T06:55:50;19.30;99.90
20370;DHT22;10344;47.592;9.600;2023-07-16T06:58:16;19.40;99.90
20370;DHT22;10344;47.592;9.600;2023-07-16T07:00:44;19.40;99.90
20370;DHT22;10344;47.592;9.600;2023-07-16T07:03:12;20.30;99.90
20370;DHT22;10344;47.592;9.600;2023-07-16T07:05:40;21.60;99.90
20370;DHT22;10344;47.592;9.600;2023-07-16T07:08:08;22.80;99.90
20370;DHT22;10344;47.592;9.600;2023-07-16T07:10:34;23.60;99.90
20370;DHT22;10344;47.592;9.600;2023-07-16T07:13:04;23.90;99.90
20370;DHT22;10344;47.592;9.600;2023-07-16T07:15:32;23.90;99.90
20370;DHT22;10344;47.592;9.600;2023-07-16T07:17:58;24.20;99.90
20370;DHT22;10344;47.592;9.600;2023-07-16T07:20:23;24.70;99.90
20370;DHT22;10344;47.592;9.600;2023-07-16T07:22:51;25.20;99.90
20370;DHT22;10344;47.592;9.600;2023-07-16T07:25:17;25.40;99.90
20370;DHT22;10344;47.592;9.600;2023-07-16T07:27:45;25.70;99.90
20370;DHT22;10344;47.592;9.600;2023-07-16T07:30:14;26.10;99.90
20370;DHT22;10344;47.592;9.600;2023-07-16T07:32:41;25.80;99.90
20370;DHT22;10344;47.592;9.600;2023-07-16T07:35:07;25.40;99.90
20370;DHT22;10344;47.592;9.600;2023-07-16T07:37:33;24.90;99.90
20370;DHT22;10344;47.592;9.600;2023-07-16T07:39:58;24.40;99.90
20370;DHT22;10344;47.592;9.600;2023-07-16T07:42:26;24.00;99.90
20370;DHT22;10344;47.592;9.600;2023-07-16T07:44:55;23.80;99.90
20370;DHT22;10344;47.592;9.600;2023-07-16T07:47:25;23.70;99.90
20370;DHT22;10344;47.592;9.600;2023-07-16T07:49:51;23.60;99.90
20370;DHT22;10344;47.592;9.600;2023-07-16T07:52:17;23.50;99.90
20370;DHT22;10344;47.592;9.600;2023-07-16T07:54:42;23.50;99.90
20370;DHT22;10344;47.592;9.600;2023-07-16T07:57:10;23.40;99.90
20370;DHT22;10344;47.592;9.600;2023-07-16T07:59:38;23.50;99.90
20370;DHT22;10344;47.592;9.600;2023-07-16T08:02:06;23.50;99.90
20370;DHT22;10344;47.592;9.600;2023-07-16T08:04:32;24.10;99.90
20370;DHT22;10344;47.592;9.600;2023-07-16T08:06:57;25.10;99.90
20370;DHT22;10344;47.592;9.600;2023-07-16T08:09:28;25.80;99.90
20370;DHT22;10344;47.592;9.600;2023-07-16T08:11:53;26.40;99.90
20370;DHT22;10344;47.592;9.600;2023-07-16T08:14:19;26.60;99.90
20370;DHT22;10344;47.592;9.600;2023-07-16T08:16:44;27.10;99.90
20370;DHT22;10344;47.592;9.600;2023-07-16T08:19:10;27.60;99.90
20370;DHT22;10344;47.592;9.600;2023-07-16T08:21:35;28.20;99.90
20370;DHT22;10344;47.592;9.600;2023-07-16T08:24:04;28.80;99.90
20370;DHT22;10344;47.592;9.600;2023-07-16T08:26:33;29.40;99.90
20370;DHT22;10344;47.592;9.600;2023-07-16T08:29:01;29.90;99.90
20370;DHT22;10344;47.592;9.600;2023-07-16T08:31:27;30.10;99.90
20370;DHT22;10344;47.592;9.600;2023-07-16T08:33:53;30.40;99.90
20370;DHT22;10344;47.592;9.600;2023-07-16T08:36:19;30.70;99.90
20370;DHT22;10344;47.592;9.600;2023-07-16T08:38:44;31.10;99.90
20370;DHT22;10344;47.592;9.600;2023-07-16T08:41:10;31.10;99.90
20370;DHT22;10344;47.592;9.600;2023-07-16T08:43:35;31.10;99.90
20370;DHT22;10344;47.592;9.600;2023-07-16T08:46:03;30.80;99.90
20370;DHT22;10344;47.592;9.600;2023-07-16T08:48:29;30.50;99.90
20370;DHT22;10344;47.592;9.600;2023-07-16T08:51:04;29.70;99.90
20370;DHT22;10344;47.592;9.600;2023-07-16T08:53:30;28.80;99.90
20370;DHT22;10344;47.592;9.600;2023-07-16T08:55:56;28.20;99.90
20370;DHT22;10344;47.592;9.600;2023-07-16T08:58:23;27.50;99.90
20370;DHT22;10344;47.592;9.600;2023-07-16T09:00:51;26.80;99.90
20370;DHT22;10344;47.592;9.600;2023-07-16T09:03:20;26.40;99.90
20370;DHT22;10344;47.592;9.600;2023-07-16T09:05:46;26.20;99.90
20370;DHT22;10344;47.592;9.600;2023-07-16T09:08:12;26.20;99.90
20370;DHT22;10344;47.592;9.600;2023-07-16T09:10:39;26.20;99.90
20370;DHT22;10344;47.592;9.600;2023-07-16T09:13:05;26.20;99.90
20370;DHT22;10344;47.592;9.600;2023-07-16T09:15:33;26.30;99.90
20370;DHT22;10344;47.592;9.600;2023-07-16T09:18:01;26.50;99.90
20370;DHT22;10344;47.592;9.600;2023-07-16T09:20:30;26.70;99.90
20370;DHT22;10344;47.592;9.600;2023-07-16T09:23:01;27.50;99.90
20370;DHT22;10344;47.592;9.600;2023-07-16T09:25:29;28.20;99.90
20370;DHT22;10344;47.592;9.600;2023-07-16T09:27:58;28.70;99.90
20370;DHT22;10344;47.592;9.600;2023-07-16T09:30:30;29.00;99.90
20370;DHT22;10344;47.592;9.600;2023-07-16T09:32:55;29.10;99.90
20370;DHT22;10344;47.592;9.600;2023-07-16T09:35:21;29.20;99.90
20370;DHT22;10344;47.592;9.600;2023-07-16T09:37:46;29.20;99.90
20370;DHT22;10344;47.592;9.600;2023-07-16T09:40:12;28.90;99.90
20370;DHT22;10344;47.592;9.600;2023-07-16T09:42:39;28.50;99.90
20370;DHT22;10344;47.592;9.600;2023-07-16T09:45:06;27.80;99.90
20370;DHT22;10344;47.592;9.600;2023-07-16T09:47:36;27.40;99.90
20370;DHT22;10344;47.592;9.600;2023-07-16T09:50:02;26.90;99.90
20370;DHT22;10344;47.592;9.600;2023-07-16T09:52:30;26.90;99.90
20370;DHT22;10344;47.592;9.600;2023-07-16T09:54:56;27.20;99.90
20370;DHT22;10344;47.592;9.600;2023-07-16T09:57:25;27.50;99.90
20370;DHT22;10344;47.592;9.600;2023-07-16T09:59:54;27.80;99.90
20370;DHT22;10344;47.592;9.600;2023-07-16T10:02:23;28.10;99.90
20370;DHT22;10344;47.592;9.600;2023-07-16T10:04:49;27.90;99.90
20370;DHT22;10344;47.592;9.600;2023-07-16T10:07:19;27.60;99.90
20370;DHT22;10344;47.592;9.600;2023-07-16T10:09:56;27.40;99.90
20370;DHT22;10344;47.592;9.600;2023-07-16T10:12:26;27.70;99.90
20370;DHT22;10344;47.592;9.600;2023-07-16T10:14:52;28.10;99.90
20370;DHT22;10344;47.592;9.600;2023-07-16T10:17:18;28.40;99.90
20370;DHT22;10344;47.592;9.600;2023-07-16T10:19:51;28.20;99.90
20370;DHT22;10344;47.592;9.600;2023-07-16T10:22:18;28.00;99.90
20370;DHT22;10344;47.592;9.600;2023-07-16T10:24:43;27.90;99.90
20370;DHT22;10344;47.592;9.600;2023-07-16T10:27:10;28.20;99.90
20370;DHT22;10344;47.592;9.600;2023-07-16T10:29:38;28.60;99.90
20370;DHT22;10344;47.592;9.600;2023-07-16T10:32:05;29.00;99.90
20370;DHT22;10344;47.592;9.600;2023-07-16T10:34:39;29.10;99.90
20370;DHT22;10344;47.592;9.600;2023-07-16T10:37:06;29.30;99.90
20370;DHT22;10344;47.592;9.600;2023-07-16T10:39:36;29.40;99.90
20370;DHT22;10344;47.592;9.600;2023-07-16T10:42:09;29.50;99.90
20370;DHT22;10344;47.592;9.600;2023-07-16T10:44:37;29.60;99.90
20370;DHT22;10344;47.592;9.600;2023-07-16T10:47:05;29.90;99.90
20370;DHT22;10344;47.592;9.600;2023-07-16T10:49:34;30.10;99.90
20370;DHT22;10344;47.592;9.600;2023-07-16T10:52:04;30.00;99.90
20370;DHT22;10344;47.592;9.600;2023-07-16T10:54:30;30.00;99.90
20370;DHT22;10344;47.592;9.600;2023-07-16T10:56:56;29.80;99.90
20370;DHT22;10344;47.592;9.600;2023-07-16T10:59:22;29.20;99.90
20370;DHT22;10344;47.592;9.600;2023-07-16T11:01:49;28.80;99.90
20370;DHT22;10344;47.592;9.600;2023-07-16T11:04:15;28.20;99.90
20370;DHT22;10344;47.592;9.600;2023-07-16T11:06:45;27.70;99.90
20370;DHT22;10344;47.592;9.600;2023-07-16T11:09:13;27.30;99.90
20370;DHT22;10344;47.592;9.600;2023-07-16T11:11:39;27.00;99.90
20370;DHT22;10344;47.592;9.600;2023-07-16T11:14:06;26.90;99.90
20370;DHT22;10344;47.592;9.600;2023-07-16T11:16:33;26.70;99.90
20370;DHT22;10344;47.592;9.600;2023-07-16T11:18:58;26.50;99.90
20370;DHT22;10344;47.592;9.600;2023-07-16T11:21:26;26.50;99.90
20370;DHT22;10344;47.592;9.600;2023-07-16T11:23:51;26.30;99.90
20370;DHT22;10344;47.592;9.600;2023-07-16T11:26:17;26.20;99.90
20370;DHT22;10344;47.592;9.600;2023-07-16T11:28:42;26.20;99.90
20370;DHT22;10344;47.592;9.600;2023-07-16T11:31:14;26.20;99.90
20370;DHT22;10344;47.592;9.600;2023-07-16T11:33:43;26.30;99.90
20370;DHT22;10344;47.592;9.600;2023-07-16T11:36:09;26.60;99.90
20370;DHT22;10344;47.592;9.600;2023-07-16T11:38:38;27.00;99.90
20370;DHT22;10344;47.592;9.600;2023-07-16T11:41:03;27.30;99.90
20370;DHT22;10344;47.592;9.600;2023-07-16T11:43:33;27.60;99.90
20370;DHT22;10344;47.592;9.600;2023-07-16T11:45:59;27.80;99.90
20370;DHT22;10344;47.592;9.600;2023-07-16T11:48:24;27.90;99.90
20370;DHT22;10344;47.592;9.600;2023-07-16T11:50:50;27.80;99.90
20370;DHT22;10344;47.592;9.600;2023-07-16T11:53:15;27.70;99.90
20370;DHT22;10344;47.592;9.600;2023-07-16T11:55:44;27.60;99.90
20370;DHT22;10344;47.592;9.600;2023-07-16T11:58:09;27.60;99.90
20370;DHT22;10344;47.592;9.600;2023-07-16T12:00:37;27.60;99.90
20370;DHT22;10344;47.592;9.600;2023-07-16T12:03:03;27.60;99.90
20370;DHT22;10344;47.592;9.600;2023-07-16T12:05:28;27.70;99.90
20370;DHT22;10344;47.592;9.600;2023-07-16T12:07:54;27.90;99.90
20370;DHT22;10344;47.592;9.600;2023-07-16T12:10:22;28.00;99.90
20370;DHT22;10344;47.592;9.600;2023-07-16T12:12:50;28.00;99.90
20370;DHT22;10344;47.592;9.600;2023-07-16T12:15:16;28.40;99.90
20370;DHT22;10344;47.592;9.600;2023-07-16T12:17:41;28.80;99.90
20370;DHT22;10344;47.592;9.600;2023-07-16T12:20:07;29.20;99.90
20370;DHT22;10344;47.592;9.600;2023-07-16T12:22:33;29.50;99.90
20370;DHT22;10344;47.592;9.600;2023-07-16T12:25:01;29.80;99.90
20370;DHT22;10344;47.592;9.600;2023-07-16T12:27:29;29.80;99.90
20370;DHT22;10344;47.592;9.600;2023-07-16T12:29:57;30.00;99.90
20370;DHT22;10344;47.592;9.600;2023-07-16T12:32:23;29.40;99.90
20370;DHT22;10344;47.592;9.600;2023-07-16T12:34:50;29.20;99.90
20370;DHT22;10344;47.592;9.600;2023-07-16T12:37:20;29.40;99.90
20370;DHT22;10344;47.592;9.600;2023-07-16T12:39:46;29.10;99.90
20370;DHT22;10344;47.592;9.600;2023-07-16T12:42:11;28.70;99.90
20370;DHT22;10344;47.592;9.600;2023-07-16T12:44:39;28.70;99.90
20370;DHT22;10344;47.592;9.600;2023-07-16T12:47:04;29.00;99.90
20370;DHT22;10344;47.592;9.600;2023-07-16T12:49:32;28.80;99.90
20370;DHT22;10344;47.592;9.600;2023-07-16T12:51:58;28.60;99.90
20370;DHT22;10344;47.592;9.600;2023-07-16T12:54:27;28.20;99.90
20370;DHT22;10344;47.592;9.600;2023-07-16T12:56:55;27.90;99.90
20370;DHT22;10344;47.592;9.600;2023-07-16T12:59:21;28.00;99.90
20370;DHT22;10344;47.592;9.600;2023-07-16T13:01:46;28.30;99.90
20370;DHT22;10344;47.592;9.600;2023-07-16T13:04:12;28.70;99.90
20370;DHT22;10344;47.592;9.600;2023-07-16T13:06:37;28.80;99.90
20370;DHT22;10344;47.592;9.600;2023-07-16T13:09:05;29.00;99.90
20370;DHT22;10344;47.592;9.600;2023-07-16T13:11:31;29.00;99.90
20370;DHT22;10344;47.592;9.600;2023-07-16T13:13:56;29.10;99.90
20370;DHT22;10344;47.592;9.600;2023-07-16T13:16:22;29.30;99.90
20370;DHT22;10344;47.592;9.600;2023-07-16T13:18:50;29.30;99.90
20370;DHT22;10344;47.592;9.600;2023-07-16T13:21:15;29.30;99.90
20370;DHT22;10344;47.592;9.600;2023-07-16T13:23:41;29.50;99.90
20370;DHT22;10344;47.592;9.600;2023-07-16T13:26:09;29.80;99.90
20370;DHT22;10344;47.592;9.600;2023-07-16T13:28:35;29.90;99.90
20370;DHT22;10344;47.592;9.600;2023-07-16T13:31:03;29.90;99.90
20370;DHT22;10344;47.592;9.600;2023-07-16T13:33:31;29.70;99.90
20370;DHT22;10344;47.592;9.600;2023-07-16T13:35:56;29.60;99.90
20370;DHT22;10344;47.592;9.600;2023-07-16T13:38:27;29.40;99.90
20370;DHT22;10344;47.592;9.600;2023-07-16T13:40:54;29.30;99.90
20370;DHT22;10344;47.592;9.600;2023-07-16T13:43:22;29.10;99.90
20370;DHT22;10344;47.592;9.600;2023-07-16T13:45:48;29.20;99.90
20370;DHT22;10344;47.592;9.600;2023-07-16T13:48:16;29.40;99.90
20370;DHT22;10344;47.592;9.600;2023-07-16T13:50:46;29.50;99.90
20370;DHT22;10344;47.592;9.600;2023-07-16T13:53:11;29.70;99.90
20370;DHT22;10344;47.592;9.600;2023-07-16T13:55:40;29.70;99.90
20370;DHT22;10344;47.592;9.600;2023-07-16T13:58:06;29.90;99.90
20370;DHT22;10344;47.592;9.600;2023-07-16T14:00:33;30.00;99.90
20370;DHT22;10344;47.592;9.600;2023-07-16T14:02:59;30.10;99.90
20370;DHT22;10344;47.592;9.600;2023-07-16T14:05:24;30.10;99.90
20370;DHT22;10344;47.592;9.600;2023-07-16T14:07:50;30.20;99.90
20370;DHT22;10344;47.592;9.600;2023-07-16T14:10:18;30.30;99.90
20370;DHT22;10344;47.592;9.600;2023-07-16T14:12:47;30.30;99.90
20370;DHT22;10344;47.592;9.600;2023-07-16T14:15:15;30.30;99.90
20370;DHT22;10344;47.592;9.600;2023-07-16T14:17:43;30.20;99.90
20370;DHT22;10344;47.592;9.600;2023-07-16T14:20:11;30.20;99.90
20370;DHT22;10344;47.592;9.600;2023-07-16T14:22:37;30.30;99.90
20370;DHT22;10344;47.592;9.600;2023-07-16T14:25:07;30.40;99.90
20370;DHT22;10344;47.592;9.600;2023-07-16T14:27:34;30.40;99.90
20370;DHT22;10344;47.592;9.600;2023-07-16T14:30:02;30.50;99.90
20370;DHT22;10344;47.592;9.600;2023-07-16T14:32:28;30.40;99.90
20370;DHT22;10344;47.592;9.600;2023-07-16T14:34:57;30.40;99.90
20370;DHT22;10344;47.592;9.600;2023-07-16T14:37:22;30.40;99.90
20370;DHT22;10344;47.592;9.600;2023-07-16T14:39:50;30.20;99.90
20370;DHT22;10344;47.592;9.600;2023-07-16T14:42:16;30.20;99.90
20370;DHT22;10344;47.592;9.600;2023-07-16T14:44:46;30.00;99.90
20370;DHT22;10344;47.592;9.600;2023-07-16T14:47:12;29.50;99.90
20370;DHT22;10344;47.592;9.600;2023-07-16T14:49:38;29.20;99.90
20370;DHT22;10344;47.592;9.600;2023-07-16T14:52:04;29.10;99.90
20370;DHT22;10344;47.592;9.600;2023-07-16T14:54:32;29.20;99.90
20370;DHT22;10344;47.592;9.600;2023-07-16T14:56:59;29.40;99.90
20370;DHT22;10344;47.592;9.600;2023-07-16T14:59:25;29.50;99.90
20370;DHT22;10344;47.592;9.600;2023-07-16T15:01:51;29.70;99.90
20370;DHT22;10344;47.592;9.600;2023-07-16T15:04:20;29.80;99.90
20370;DHT22;10344;47.592;9.600;2023-07-16T15:06:46;29.80;99.90
20370;DHT22;10344;47.592;9.600;2023-07-16T15:09:11;29.80;99.90
20370;DHT22;10344;47.592;9.600;2023-07-16T15:11:39;29.80;99.90
20370;DHT22;10344;47.592;9.600;2023-07-16T15:14:07;29.40;99.90
20370;DHT22;10344;47.592;9.600;2023-07-16T15:16:35;29.00;99.90
20370;DHT22;10344;47.592;9.600;2023-07-16T15:19:01;28.70;99.90
20370;DHT22;10344;47.592;9.600;2023-07-16T15:21:27;28.60;99.90
20370;DHT22;10344;47.592;9.600;2023-07-16T15:23:53;28.60;99.90
20370;DHT22;10344;47.592;9.600;2023-07-16T15:26:19;28.50;99.90
20370;DHT22;10344;47.592;9.600;2023-07-16T15:28:44;28.20;99.90
20370;DHT22;10344;47.592;9.600;2023-07-16T15:31:11;27.90;99.90
20370;DHT22;10344;47.592;9.600;2023-07-16T15:33:39;27.80;99.90
20370;DHT22;10344;47.592;9.600;2023-07-16T15:36:05;27.80;99.90